createdAt,value
2023-09-08T00:01:09.707Z,21451.00
2023-09-08T00:11:31.381Z,19069.00
2023-09-08T00:21:54.280Z,18901.00
2023-09-08T00:32:16.005Z,18325.00
2023-09-08T00:42:40.891Z,17226.00
2023-09-08T00:53:02.890Z,15621.00
2023-09-08T01:03:26.376Z,14370.00
2023-09-08T01:13:48.184Z,13730.00
2023-09-08T01:24:27.618Z,12021.00
2023-09-08T01:34:51.272Z,8541.00
2023-09-08T01:45:12.847Z,6267.00
2023-09-08T01:55:36.121Z,2705.00
2023-09-08T02:05:57.800Z,1144.00
2023-09-08T02:16:21.875Z,344336.00
2023-09-08T02:26:46.231Z,343195.00
2023-09-08T02:37:09.866Z,342044.00
2023-09-08T02:47:31.990Z,341752.00
2023-09-08T02:57:56.815Z,340641.00
2023-09-08T03:08:17.997Z,340449.00
2023-09-08T03:18:40.947Z,340187.00
2023-09-08T03:29:02.535Z,339340.00
2023-09-08T03:39:25.577Z,338501.00
2023-09-08T03:49:47.916Z,338271.00
2023-09-08T04:00:13.213Z,338011.00
2023-09-08T04:10:38.825Z,337615.00
2023-09-08T04:21:01.873Z,336966.00
2023-09-08T04:31:23.980Z,336570.00
2023-09-08T04:41:47.428Z,335850.00
2023-09-08T04:52:09.699Z,336443.00
2023-09-08T05:02:33.409Z,338557.00
2023-09-08T05:12:56.158Z,341042.00
2023-09-08T05:23:21.392Z,342635.00
2023-09-08T05:33:43.707Z,344546.00
2023-09-08T05:44:08.153Z,345207.00
2023-09-08T05:54:31.632Z,520.00
2023-09-08T06:04:57.499Z,4785.00
2023-09-08T06:15:19.521Z,10825.00
2023-09-08T06:25:43.620Z,15613.00
2023-09-08T06:36:06.416Z,22142.00
2023-09-08T06:46:29.513Z,28480.00
2023-09-08T06:56:52.363Z,35112.00
2023-09-08T07:07:16.257Z,47297.00
2023-09-08T07:17:38.489Z,68734.00
2023-09-08T07:28:01.861Z,91512.00
2023-09-08T07:38:23.888Z,105778.00
2023-09-08T07:48:47.152Z,115043.00
2023-09-08T07:59:08.999Z,116902.00
2023-09-08T08:09:32.281Z,116899.00
2023-09-08T08:19:54.296Z,116900.00
2023-09-08T08:30:17.475Z,116902.00
2023-09-08T08:40:40.677Z,116900.00
2023-09-08T08:51:04.823Z,116902.00
2023-09-08T09:01:27.933Z,116903.00
2023-09-08T09:11:52.682Z,116901.00
2023-09-08T09:22:14.503Z,116902.00
2023-09-08T09:32:38.200Z,116906.00
2023-09-08T09:43:01.251Z,116899.00
2023-09-08T09:53:26.010Z,116904.00
2023-09-08T10:03:49.915Z,116907.00
2023-09-08T10:14:14.626Z,116906.00
2023-09-08T10:24:36.957Z,116905.00
2023-09-08T10:35:02.128Z,116905.00
2023-09-08T10:45:23.554Z,116903.00
2023-09-08T10:56:06.482Z,116902.00
2023-09-08T11:06:31.714Z,116901.00
2023-09-08T11:16:55.282Z,116902.00
2023-09-08T11:27:16.890Z,116903.00
2023-09-08T11:37:41.366Z,116901.00
2023-09-08T11:48:03.420Z,116903.00
2023-09-08T11:58:26.586Z,116908.00
2023-09-08T12:08:48.260Z,116902.00
2023-09-08T12:19:31.006Z,116904.00
2023-09-08T12:29:57.391Z,116904.00
2023-09-08T12:40:20.404Z,116908.00
2023-09-08T12:50:42.192Z,116908.00
2023-09-08T13:01:07.840Z,116904.00
2023-09-08T13:11:29.533Z,116903.00
2023-09-08T13:21:52.596Z,116902.00
2023-09-08T13:32:14.578Z,116910.00
2023-09-08T13:42:37.752Z,116903.00
2023-09-08T13:53:00.240Z,116905.00
2023-09-08T14:03:23.992Z,116903.00
2023-09-08T14:13:46.680Z,116903.00
2023-09-08T14:24:10.060Z,116906.00
2023-09-08T14:34:31.467Z,116906.00
2023-09-08T14:44:54.614Z,116911.00
2023-09-08T14:55:16.154Z,116907.00
2023-09-08T15:05:53.018Z,116908.00
2023-09-08T15:16:15.863Z,116902.00
2023-09-08T15:26:39.851Z,116901.00
2023-09-08T15:37:01.490Z,116900.00
2023-09-08T15:47:24.397Z,116906.00
2023-09-08T15:57:45.829Z,116905.00
2023-09-08T16:08:09.084Z,116899.00
2023-09-08T16:18:33.094Z,116904.00
2023-09-08T16:28:58.707Z,116904.00
2023-09-08T16:39:20.493Z,116903.00
2023-09-08T16:49:43.684Z,116901.00
2023-09-08T17:00:06.874Z,116902.00
2023-09-08T17:10:30.494Z,116903.00
2023-09-08T17:20:52.600Z,116901.00
2023-09-08T17:31:15.839Z,116902.00
2023-09-08T17:41:37.679Z,116900.00
2023-09-08T17:52:02.882Z,116903.00
2023-09-08T18:02:26.360Z,116898.00
2023-09-08T18:12:49.890Z,116896.00
2023-09-08T18:23:11.582Z,116897.00
2023-09-08T18:33:35.344Z,116904.00
2023-09-08T18:43:57.241Z,116901.00
2023-09-08T18:54:20.380Z,116900.00
2023-09-08T19:04:42.487Z,116896.00
2023-09-08T19:15:06.635Z,116900.00
2023-09-08T19:25:28.310Z,116899.00
2023-09-08T19:35:51.706Z,116904.00
2023-09-08T19:46:13.393Z,116900.00
2023-09-08T19:56:36.744Z,116583.00
2023-09-08T20:06:58.547Z,115568.00
2023-09-08T20:17:21.990Z,112290.00
2023-09-08T20:27:45.112Z,109729.00
2023-09-08T20:38:10.214Z,99182.00
2023-09-08T20:48:33.579Z,97362.00
2023-09-08T20:58:56.760Z,85618.00
2023-09-08T21:09:20.090Z,69139.00
2023-09-08T21:19:43.709Z,49450.00
2023-09-08T21:30:06.837Z,44342.00
2023-09-08T21:40:29.851Z,52281.00
2023-09-08T21:50:51.612Z,45644.00
2023-09-08T22:01:16.107Z,37180.00
2023-09-08T22:11:38.238Z,29279.00
2023-09-08T22:22:01.080Z,20247.00
2023-09-08T22:32:22.861Z,14929.00
2023-09-08T22:42:45.682Z,15836.00
2023-09-08T22:53:08.071Z,10593.00
2023-09-08T23:03:31.095Z,6335.00
2023-09-08T23:13:53.680Z,4431.00
2023-09-08T23:24:16.465Z,2024.00
2023-09-08T23:34:38.169Z,1917.00
2023-09-08T23:45:01.361Z,1388.00
2023-09-08T23:55:23.040Z,345753.00
